Time;durP1;ratioP1;P1;durP2;ratioP2;P2;SDS_P1;SDS_P2;PMS_P1;PMS_P2;Temp;Humidity;BMP_temperature;BMP_pressure;BME280_temperature;BME280_humidity;BME280_pressure;Samples;Min_cycle;Max_cycle;Signal;HPM_P1;HPM_P2
2022/07/30 03:02:50;;;;;;;;;;;;;;;;;;;;;
2022/07/30 03:13:07;;;;;;;;;;;;;;;;;;;;;
2022/07/30 03:18:47;;;;;;;;;;;;;;;;;;;;;
2022/07/30 03:38:00;;;;;;;;;;;;;;;;;;;;;
2022/07/30 03:47:17;;;;;;;;;;;;;;;;;;;;;
2022/07/30 03:50:20;;;;;;;;;;;;;;;;;;;;;
2022/07/30 04:05:38;;;;;;;;;;;;;;;;;;;;;
2022/07/30 04:08:40;;;;;;;;;;;;;;;;;;;;;
2022/07/30 04:11:51;;;;;;;;;;;;;;;;;;;;;
2022/07/30 04:15:03;;;;;;;;;;;;;;;;;;;;;
2022/07/30 04:18:17;;;;;;;;;;;;;;;;;;;;;
2022/07/30 04:41:03;;;;;;;;;;;;;;;;;;;;;
2022/07/30 04:44:08;;;;;;;;;;;;;;;;;;;;;
2022/07/30 04:47:28;;;;;;;;;;;;;;;;;;;;;
2022/07/30 05:09:10;;;;;;;;;;;;;;;;;;;;;
2022/07/30 05:15:49;;;;;;;;;;;;;;;;;;;;;
2022/07/30 05:25:06;;;;;;;;;;;;;;;;;;;;;
2022/07/30 05:34:33;;;;;;;;;;;;;;;;;;;;;
2022/07/30 05:37:33;;;;;;;;;;;;;;;;;;;;;
2022/07/30 05:40:38;;;;;;;;;;;;;;;;;;;;;
2022/07/30 05:44:02;;;;;;;;;;;;;;;;;;;;;
2022/07/30 05:47:21;;;;;;;;;;;;;;;;;;;;;
2022/07/30 05:50:27;;;;;;;;;;;;;;;;;;;;;
2022/07/30 05:53:32;;;;;;;;;;;;;;;;;;;;;
2022/07/30 06:04:14;;;;;;;15.00;8.40;;;;;;;18.14;63.17;98758.62;109712;1269;23653;31
2022/07/30 06:10:33;;;;;;;;;;;;;;;;;;;;;
2022/07/30 06:29:13;;;;;;;;;;;;;;;;;;;;;
2022/07/30 06:32:18;;;;;;;;;;;;;;;;;;;;;
2022/07/30 06:38:44;;;;;;;;;;;;;;;;;;;;;
2022/07/30 06:42:41;;;;;;;;;;;;;;;;;;;;;
2022/07/30 07:01:58;;;;;;;;;;;;;;;;;;;;;
2022/07/30 07:14:46;;;;;;;;;;;;;;;;;;;;;
2022/07/30 07:18:13;;;;;;;;;;;;;;;;;;;;;
2022/07/30 07:22:03;;;;;;;;;;;;;;;;;;;;;
2022/07/30 07:28:10;;;;;;;;;;;;;;;;;;;;;
2022/07/30 07:44:01;;;;;;;;;;;;;;;;;;;;;
2022/07/30 08:16:09;;;;;;;;;;;;;;;;;;;;;
2022/07/30 09:00:32;;;;;;;;;;;;;;;;;;;;;
2022/07/30 09:06:24;;;;;;;8.00;3.00;;;;;;;17.24;65.53;98815.35;108941;1284;22360;-93
2022/07/30 09:12:47;;;;;;;;;;;;;;;;;;;;;
2022/07/30 09:15:32;;;;;;;10.10;3.50;;;;;;;17.24;66.17;98831.55;108894;1284;22397;-94
2022/07/30 09:22:48;;;;;;;7.80;3.20;;;;;;;17.17;66.22;98822.89;107617;1295;22545;-94
2022/07/30 09:26:19;;;;;;;8.60;3.30;;;;;;;17.24;66.04;98820.20;107638;1294;22493;-92
2022/07/30 09:34:08;;;;;;;8.00;3.10;;;;;;;17.34;66.08;98831.20;106353;1308;22261;-93
2022/07/30 09:37:39;;;;;;;7.50;3.40;;;;;;;17.29;66.22;98825.63;106572;1313;22239;-92
2022/07/30 09:40:52;;;;;;;9.30;3.60;;;;;;;17.37;66.36;98825.52;105476;1311;22289;-92
2022/07/30 09:44:08;;;;;;;7.00;3.50;;;;;;;17.31;66.11;98819.79;106301;1313;22536;-93
2022/07/30 09:47:42;;;;;;;8.20;3.70;;;;;;;17.27;66.31;98816.14;106219;1311;23426;-92
2022/07/30 09:50:53;;;;;;;8.30;3.10;;;;;;;17.28;66.52;98818.82;106251;1311;22259;-91
2022/07/30 09:54:08;;;;;;;7.70;2.90;;;;;;;17.24;66.32;98816.27;106419;1311;22526;-91
2022/07/30 09:57:28;;;;;;;;;;;;;;;;;;;;;
2022/07/30 10:01:00;;;;;;;7.80;3.20;;;;;;;17.11;66.69;98819.19;106600;1308;22465;-93
2022/07/30 10:05:07;;;;;;;8.40;3.40;;;;;;;17.12;66.63;98818.27;106626;1307;22315;-94
2022/07/30 10:07:32;;;;;;;;;;;;;;;;;;;;;
2022/07/30 10:10:49;;;;;;;9.00;3.40;;;;;;;17.19;66.83;98813.23;107149;1297;22452;-93
2022/07/30 10:13:32;;;;;;;7.20;3.00;;;;;;;17.14;66.61;98811.23;107530;1293;22411;-93
2022/07/30 10:16:07;;;;;;;6.50;3.30;;;;;;;17.15;66.72;98812.36;107965;1291;23101;-93
2022/07/30 10:19:02;;;;;;;7.40;3.40;;;;;;;17.18;66.94;98811.14;107720;1287;22202;-92
2022/07/30 10:22:57;;;;;;;8.20;3.20;;;;;;;17.25;66.91;98807.98;107681;1292;22525;-93
2022/07/30 10:26:33;;;;;;;9.80;3.50;;;;;;;17.35;66.97;98807.86;106859;1301;22483;-93
2022/07/30 10:30:17;;;;;;;7.00;3.40;;;;;;;17.34;66.82;98807.86;107232;1295;23137;-93
2022/07/30 10:33:01;;;;;;;6.30;2.90;;;;;;;17.22;66.90;98807.67;107436;1295;22568;-93
2022/07/30 10:35:39;;;;;;;7.60;3.60;;;;;;;17.18;66.76;98805.40;107368;1294;22559;-92
2022/07/30 10:38:28;;;;;;;8.90;3.40;;;;;;;17.17;67.10;98802.60;107403;1295;23681;-91
2022/07/30 10:42:04;;;;;;;7.80;3.30;;;;;;;17.30;67.28;98799.44;107452;1295;22527;-91
2022/07/30 10:45:36;;;;;;;8.90;3.50;;;;;;;17.42;66.95;98801.25;107440;1294;22362;-90
2022/07/30 10:48:56;;;;;;;7.80;3.30;;;;;;;17.44;67.14;98800.50;107357;1296;22603;-90
2022/07/30 10:52:49;;;;;;;7.30;3.30;;;;;;;17.50;67.31;98793.41;107438;1293;22491;-90
2022/07/30 10:55:41;;;;;;;8.80;3.70;;;;;;;17.59;67.14;98792.06;107381;1293;22562;-91
2022/07/30 10:59:04;;;;;;;;;;;;;;;;;;;;;
2022/07/30 11:02:18;;;;;;;6.70;3.20;;;;;;;17.81;67.11;98793.39;107459;1287;22393;-90
2022/07/30 11:05:39;;;;;;;7.80;3.10;;;;;;;17.86;66.89;98785.09;108391;1287;22441;-92
2022/07/30 11:09:19;;;;;;;8.90;3.70;;;;;;;17.94;67.38;98789.98;108542;1287;22466;-90
2022/07/30 11:13:00;;;;;;;6.80;3.40;;;;;;;18.07;67.20;98787.64;108217;1287;22437;-91
2022/07/30 11:16:07;;;;;;;8.50;3.70;;;;;;;18.06;66.95;98789.61;108193;1287;22470;-91
2022/07/30 11:19:03;;;;;;;6.80;3.30;;;;;;;17.93;66.76;98788.73;108291;1287;22460;-88
2022/07/30 11:21:38;;;;;;;10.20;3.40;;;;;;;17.77;66.97;98792.66;108148;1287;22469;-89
2022/07/30 11:24:55;;;;;;;8.90;3.50;;;;;;;17.76;67.32;98795.13;108081;1287;22511;-90
2022/07/30 11:27:45;;;;;;;7.00;3.70;;;;;;;17.70;67.00;98792.71;107379;1293;22607;-91
2022/07/30 11:30:15;;;;;;;9.70;4.00;;;;;;;17.60;67.05;98797.17;107426;1293;23194;-92
2022/07/30 11:33:00;;;;;;;7.90;3.80;;;;;;;17.49;67.29;98800.52;107459;1293;22552;-90
2022/07/30 11:36:02;;;;;;;9.10;4.10;;;;;;;17.52;67.56;98804.15;107297;1296;22577;-90
2022/07/30 11:39:23;;;;;;;8.90;3.90;;;;;;;17.52;67.48;98802.20;107326;1295;22224;-90
2022/07/30 11:43:07;;;;;;;7.50;3.20;;;;;;;17.47;67.50;98804.66;107309;1295;22246;-90
2022/07/30 11:46:10;;;;;;;8.20;4.10;;;;;;;17.42;67.65;98810.74;107423;1295;22502;-90
2022/07/30 11:49:15;;;;;;;9.30;3.90;;;;;;;17.50;67.83;98811.17;107328;1295;22470;-90
2022/07/30 11:52:02;;;;;;;;;;;;;;;;;;;;;
2022/07/30 11:54:58;;;;;;;9.30;4.40;;;;;;;17.43;67.68;98815.00;107266;1296;23040;-91
2022/07/30 11:57:48;;;;;;;8.10;3.80;;;;;;;17.43;67.75;98814.80;107254;1296;22552;-91
2022/07/30 12:00:34;;;;;;;6.70;4.00;;;;;;;17.38;67.59;98814.66;107376;1293;22454;-90
2022/07/30 12:03:25;;;;;;;9.00;3.40;;;;;;;17.30;67.67;98816.48;107419;1293;22517;-93
2022/07/30 12:06:06;;;;;;;7.50;4.00;;;;;;;17.23;67.75;98816.48;108195;1287;22732;-92
2022/07/30 12:09:04;;;;;;;8.70;4.00;;;;;;;17.15;67.79;98821.54;108381;1287;22386;-91
2022/07/30 12:11:46;;;;;;;10.40;5.00;;;;;;;17.10;67.94;98811.76;108386;1286;23077;-91
2022/07/30 12:14:14;;;;;;;9.80;4.50;;;;;;;17.10;68.01;98823.36;108242;1287;22583;-92
2022/07/30 12:17:34;;;;;;;8.70;4.20;;;;;;;17.07;68.05;98828.39;108374;1287;22213;-92
2022/07/30 12:19:50;;;;;;;8.70;4.90;;;;;;;17.06;68.01;98826.02;108345;1286;23203;-92
2022/07/30 12:22:32;;;;;;;8.60;4.50;;;;;;;17.10;68.25;98830.70;108421;1287;22361;-92
2022/07/30 12:25:30;;;;;;;;;;;;;;;;;;;;;
2022/07/30 12:28:21;;;;;;;9.40;4.70;;;;;;;16.98;68.17;98824.89;108390;1287;22520;-93
2022/07/30 12:31:05;;;;;;;7.90;4.00;;;;;;;16.97;68.19;98824.95;108433;1287;22429;-91
2022/07/30 12:33:49;;;;;;;7.80;4.50;;;;;;;16.98;68.37;98821.96;108258;1287;22432;-92
2022/07/30 12:36:35;;;;;;;9.50;4.60;;;;;;;16.96;68.29;98818.77;108709;1286;22363;-93
2022/07/30 12:39:11;;;;;;;9.60;5.10;;;;;;;16.98;68.45;98820.00;108372;1287;22378;-93
2022/07/30 12:41:52;;;;;;;8.10;4.90;;;;;;;17.00;68.57;98812.96;108477;1286;23056;-91
2022/07/30 12:44:48;;;;;;;8.50;4.60;;;;;;;16.93;68.49;98809.85;108541;1287;22430;-91
2022/07/30 12:47:34;;;;;;;8.90;5.30;;;;;;;16.92;68.55;98802.23;108289;1287;22460;-92
2022/07/30 12:50:56;;;;;;;7.90;4.30;;;;;;;16.97;68.66;98801.54;108393;1287;22458;-93
2022/07/30 12:53:54;;;;;;;8.60;4.40;;;;;;;17.07;68.55;98803.10;108626;1272;22526;-92
2022/07/30 12:56:54;;;;;;;8.40;4.90;;;;;;;17.12;68.69;98804.79;108625;1284;22884;-93
2022/07/30 12:59:23;;;;;;;5.40;2.90;;;;;;;17.20;68.77;98808.48;108374;1284;23323;-88
2022/07/30 13:01:52;;;;;;;8.90;4.70;;;;;;;17.23;68.48;98808.77;108161;1285;22396;-90
2022/07/30 13:04:54;;;;;;;8.30;4.00;;;;;;;17.17;68.59;98809.39;108291;1284;22990;-89
2022/07/30 13:07:31;;;;;;;8.50;5.30;;;;;;;17.10;68.66;98804.55;108454;1284;22478;-87
2022/07/30 13:10:19;;;;;;;;;;;;;;;;;;;;;
2022/07/30 13:17:24;;;;;;;;;;;;;;;;;;;;;
2022/07/30 13:20:45;;;;;;;;;;;;;;;;;;;;;
2022/07/30 13:23:53;;;;;;;;;;;;;;;;;;;;;
2022/07/30 13:39:49;;;;;;;8.10;4.60;;;;;;;17.39;68.92;98804.10;105034;1312;545474;-89
2022/07/30 13:42:22;;;;;;;8.20;5.10;;;;;;;17.32;68.98;98797.30;107107;1286;22822;-92
2022/07/30 13:45:09;;;;;;;8.00;4.10;;;;;;;17.32;69.10;98797.64;106846;1286;22519;-93
2022/07/30 13:48:02;;;;;;;8.10;4.00;;;;;;;17.27;69.28;98794.73;107198;1284;24243;-93
2022/07/30 13:50:32;;;;;;;6.50;3.00;;;;;;;17.18;69.39;98796.50;106950;1280;24448;-92
2022/07/30 13:53:11;;;;;;;;;;;;;;;;;;;;;
2022/07/30 13:56:02;;;;;;;4.90;2.70;;;;;;;17.06;69.51;98793.08;106857;1280;22686;-90
2022/07/30 13:58:42;;;;;;;4.90;2.30;;;;;;;17.11;69.55;98792.60;106488;1280;25458;-89
2022/07/30 14:01:24;;;;;;;4.80;1.70;;;;;;;17.17;69.70;98794.47;106484;1280;22539;-91
2022/07/30 14:03:51;;;;;;;3.60;1.60;;;;;;;17.26;69.61;98792.27;106624;1280;22594;-89
2022/07/30 14:06:25;;;;;;;3.50;1.60;;;;;;;17.23;69.46;98790.08;106891;1271;25244;-90
2022/07/30 14:09:07;;;;;;;3.80;1.90;;;;;;;17.20;69.62;98793.23;107015;1271;22535;-90
2022/07/30 14:12:22;;;;;;;4.20;2.20;;;;;;;17.19;69.69;98792.36;106693;1277;23280;-91
2022/07/30 14:15:01;;;;;;;5.20;2.20;;;;;;;17.28;69.93;98788.16;106938;1278;22663;-89
2022/07/30 14:17:39;;;;;;;4.70;2.00;;;;;;;17.33;69.63;98780.30;106186;1278;22659;-92
2022/07/30 14:20:22;;;;;;;4.70;1.90;;;;;;;17.37;69.77;98777.27;106850;1278;22865;-92
2022/07/30 14:23:15;;;;;;;5.80;2.50;;;;;;;17.39;69.74;98769.50;106893;1278;22573;-92
2022/07/30 14:26:43;;;;;;;5.50;2.40;;;;;;;17.44;69.80;98767.73;107227;1277;22665;-92
2022/07/30 14:29:13;;;;;;;5.30;2.60;;;;;;;17.42;69.64;98766.67;106020;1277;24056;-89
2022/07/30 14:31:59;;;;;;;4.10;2.00;;;;;;;17.43;69.80;98765.88;106607;1278;24264;-89
2022/07/30 14:34:45;;;;;;;6.10;2.30;;;;;;;17.35;69.76;98769.07;106377;1276;25422;-87
2022/07/30 14:37:26;;;;;;;4.60;2.10;;;;;;;17.29;70.06;98765.15;106293;1277;22965;-90
2022/07/30 14:40:02;;;;;;;5.60;2.70;;;;;;;17.29;69.98;98766.44;106556;1277;25841;-91
2022/07/30 14:42:46;;;;;;;5.00;2.20;;;;;;;17.19;69.90;98761.38;106632;1271;22884;-87
2022/07/30 14:45:47;;;;;;;4.20;1.80;;;;;;;17.10;70.08;98759.84;106715;1271;22541;-90
2022/07/30 14:48:28;;;;;;;4.80;1.90;;;;;;;17.09;70.19;98756.60;107110;1272;23187;-90
2022/07/30 14:51:35;;;;;;;;;;;;;;;;;;;;;
2022/07/30 14:54:49;;;;;;;5.00;2.10;;;;;;;17.03;70.24;98757.04;107362;1271;22531;-90
2022/07/30 14:57:50;;;;;;;5.60;2.20;;;;;;;17.07;70.49;98759.26;106858;1278;23403;-90
2022/07/30 15:00:52;;;;;;;;;;;;;;;;;;;;;
2022/07/30 15:04:12;;;;;;;;;;;;;;;;;;;;;
2022/07/30 15:07:30;;;;;;;4.10;1.40;;;;;;;16.96;70.57;98762.45;106791;1278;24240;-90
2022/07/30 15:10:55;;;;;;;;;;;;;;;;;;;;;
2022/07/30 15:14:26;;;;;;;4.80;1.60;;;;;;;16.87;70.60;98767.21;106558;1277;23905;-92
2022/07/30 15:17:23;;;;;;;3.30;1.50;;;;;;;16.83;70.64;98765.46;106515;1278;24211;-91
2022/07/30 15:20:11;;;;;;;2.80;1.20;;;;;;;16.82;70.82;98762.36;106600;1278;22508;-91
2022/07/30 15:23:02;;;;;;;3.30;1.20;;;;;;;16.78;70.80;98762.15;106043;1281;25547;-92
2022/07/30 15:25:29;;;;;;;2.80;0.90;;;;;;;16.80;70.76;98761.82;106185;1280;22541;-91
2022/07/30 15:27:56;;;;;;;2.40;1.00;;;;;;;16.80;70.82;98762.91;106162;1281;22649;-90
2022/07/30 15:30:57;;;;;;;2.60;1.00;;;;;;;16.82;70.89;98764.52;106515;1280;23045;-91
2022/07/30 15:33:41;;;;;;;;;;;;;;;;;;;;;
2022/07/30 15:36:55;;;;;;;3.10;0.90;;;;;;;16.75;71.22;98761.77;107132;1274;24210;-90
2022/07/30 15:39:38;;;;;;;4.30;1.20;;;;;;;16.68;71.11;98760.62;106973;1274;22949;-89
2022/07/30 15:42:29;;;;;;;5.10;1.50;;;;;;;16.65;71.22;98761.14;106580;1274;23324;-89
2022/07/30 15:53:29;;;;;;;2.90;1.20;;;;;;;16.81;71.36;98764.40;106602;1274;22585;-90
2022/07/30 15:56:33;;;;;;;4.30;1.80;;;;;;;16.84;71.44;98768.23;107112;1279;22548;-88
2022/07/30 16:00:05;;;;;;;5.10;2.30;;;;;;;16.82;71.38;98765.56;105914;1281;24886;-92
2022/07/30 16:03:30;;;;;;;3.10;1.30;;;;;;;16.88;71.63;98764.95;105264;1287;22631;-92
2022/07/30 16:07:25;;;;;;;4.00;1.70;;;;;;;16.92;71.43;98763.98;105091;1293;24918;-90
2022/07/30 16:10:00;;;;;;;3.60;1.50;;;;;;;16.91;71.38;98759.89;105039;1293;22595;-89
2022/07/30 16:12:54;;;;;;;6.40;2.20;;;;;;;16.83;71.35;98762.90;104350;1294;24264;-90
2022/07/30 16:16:02;;;;;;;;;;;;;;;;;;;;;
2022/07/30 16:18:43;;;;;;;4.50;1.50;;;;;;;16.87;71.67;98772.21;104480;1294;24170;-91
2022/07/30 16:21:32;;;;;;;3.90;1.80;;;;;;;16.86;71.66;98772.34;105231;1294;23282;-90
2022/07/30 16:24:27;;;;;;;;;;;;;;;;;;;;;
2022/07/30 16:26:58;;;;;;;6.10;2.30;;;;;;;16.82;71.61;98768.65;104538;1294;24347;-89
2022/07/30 16:29:58;;;;;;;5.60;2.60;;;;;;;16.86;71.82;98771.77;104230;1301;22610;-90
2022/07/30 16:32:28;;;;;;;6.10;2.80;;;;;;;16.86;71.87;98767.82;104455;1294;23191;-89
2022/07/30 16:35:05;;;;;;;6.00;2.60;;;;;;;16.92;71.82;98767.96;105160;1291;23995;-90
2022/07/30 16:37:56;;;;;;;5.00;2.40;;;;;;;16.92;71.71;98768.10;104832;1294;22564;-90
2022/07/30 16:40:53;;;;;;;;;;;;;;;;;;;;;
2022/07/30 16:44:33;;;;;;;;;;;;;;;;;;;;;
2022/07/30 16:48:13;;;;;;;6.10;2.30;;;;;;;17.08;71.97;98768.47;105364;1286;22588;-90
2022/07/30 16:51:07;;;;;;;5.10;2.00;;;;;;;17.10;71.74;98767.13;105251;1288;24319;-89
2022/07/30 16:53:35;;;;;;;6.40;2.60;;;;;;;17.07;71.72;98770.90;105054;1287;22553;-90
2022/07/30 16:56:34;;;;;;;6.30;2.10;;;;;;;17.06;71.85;98772.48;105250;1290;26742;-88
2022/07/30 16:59:51;;;;;;;4.80;2.00;;;;;;;17.05;71.92;98771.83;105451;1287;25386;-89
2022/07/30 17:04:06;;;;;;;4.10;2.00;;;;;;;16.97;71.82;98777.61;105592;1287;25499;-91
2022/07/30 17:06:46;;;;;;;5.80;2.60;;;;;;;16.94;72.08;98778.16;105026;1291;22575;-90
2022/07/30 17:10:21;;;;;;;5.70;2.70;;;;;;;16.89;72.03;98780.45;105185;1287;22595;-89
2022/07/30 17:14:29;;;;;;;;;;;;;;;;;;;;;
2022/07/30 17:17:28;;;;;;;5.10;2.00;;;;;;;16.81;72.18;98783.98;106748;1271;24199;-86
2022/07/30 17:21:10;;;;;;;;;;;;;;;;;;;;;
2022/07/30 17:25:15;;;;;;;4.60;2.20;;;;;;;16.64;72.13;98789.88;106420;1277;22553;-88
2022/07/30 17:28:31;;;;;;;;;;;;;;;;;;;;;
2022/07/30 17:32:15;;;;;;;;;;;;;;;;;;;;;
2022/07/30 17:36:21;;;;;;;5.80;2.20;;;;;;;16.58;72.34;98794.82;105179;1288;26489;-87
2022/07/30 17:39:06;;;;;;;4.90;1.90;;;;;;;16.61;72.56;98798.45;105452;1288;22601;-88
2022/07/30 17:42:48;;;;;;;;;;;;;;;;;;;;;
2022/07/30 17:46:37;;;;;;;;;;;;;;;;;;;;;
2022/07/30 17:51:01;;;;;;;7.50;2.10;;;;;;;16.48;72.77;98791.46;103594;1300;22644;-89
2022/07/30 17:54:14;;;;;;;;;;;;;;;;;;;;;
2022/07/30 17:57:49;;;;;;;;;;;;;;;;;;;;;
2022/07/30 18:02:02;;;;;;;6.40;1.90;;;;;;;16.45;73.01;98794.27;103176;1313;22229;-86
2022/07/30 18:05:26;;;;;;;4.80;1.60;;;;;;;16.45;72.87;98798.23;103035;1312;24381;-88
2022/07/30 18:08:52;;;;;;;6.80;1.60;;;;;;;16.51;72.88;98796.52;103124;1310;25633;-87
2022/07/30 18:12:26;;;;;;;;;;;;;;;;;;;;;
2022/07/30 18:16:06;;;;;;;5.00;1.60;;;;;;;16.56;72.79;98805.23;103194;1309;26624;-86
2022/07/30 18:19:46;;;;;;;;;;;;;;;;;;;;;
2022/07/30 18:22:46;;;;;;;3.90;1.70;;;;;;;16.41;72.85;98812.45;102955;1312;22567;-90
2022/07/30 18:25:39;;;;;;;3.00;1.40;;;;;;;16.34;72.88;98812.30;102934;1313;23691;-87
2022/07/30 18:28:49;;;;;;;;;;;;;;;;;;;;;
2022/07/30 18:32:01;;;;;;;3.50;1.50;;;;;;;16.26;72.97;98820.48;104154;1297;22819;-86
2022/07/30 18:34:52;;;;;;;4.30;1.70;;;;;;;16.23;73.07;98822.73;104378;1292;22657;-88
2022/07/30 18:37:56;;;;;;;3.50;1.70;;;;;;;16.22;73.19;98822.08;104948;1288;22684;-87
2022/07/30 18:41:01;;;;;;;2.10;0.90;;;;;;;16.21;73.23;98826.33;105500;1287;22616;-85
2022/07/30 18:44:09;;;;;;;;;;;;;;;;;;;;;
2022/07/30 18:47:35;;;;;;;3.70;1.20;;;;;;;16.13;73.29;98829.80;105519;1287;22555;-89
2022/07/30 18:50:31;;;;;;;;;;;;;;;;;;;;;
2022/07/30 18:54:09;;;;;;;3.10;1.40;;;;;;;16.08;73.44;98833.74;105033;1287;22640;-86
2022/07/30 18:57:17;;;;;;;2.90;1.50;;;;;;;16.04;73.31;98831.65;105469;1281;22784;-88
2022/07/30 19:00:31;;;;;;;;;;;;;;;;;;;;;
2022/07/30 19:03:42;;;;;;;;;;;;;;;;;;;;;
2022/07/30 19:07:14;;;;;;;4.10;1.80;;;;;;;15.98;73.65;98842.60;106502;1271;25304;-89
2022/07/30 19:11:22;;;;;;;4.00;1.60;;;;;;;15.96;73.60;98844.19;105733;1277;25682;-88
2022/07/30 19:18:14;;;;;;;5.10;1.90;;;;;;;15.97;73.73;98843.79;106104;1277;22762;-88
2022/07/30 19:21:24;;;;;;;;;;;;;;;;;;;;;
2022/07/30 19:24:31;;;;;;;5.70;1.90;;;;;;;15.96;73.69;98844.92;106118;1278;24196;-88
2022/07/30 19:28:00;;;;;;;;;;;;;;;;;;;;;
2022/07/30 19:32:03;;;;;;;5.10;2.10;;;;;;;15.91;73.68;98843.42;105301;1284;24238;-85
2022/07/30 19:34:53;;;;;;;;;;;;;;;;;;;;;
2022/07/30 19:38:14;;;;;;;4.70;2.00;;;;;;;15.89;74.09;98839.89;104886;1289;23349;-87
2022/07/30 19:41:39;;;;;;;;;;;;;;;;;;;;;
2022/07/30 19:45:17;;;;;;;;;;;;;;;;;;;;;
2022/07/30 19:48:43;;;;;;;4.50;1.80;;;;;;;15.95;74.17;98853.66;104653;1290;23929;-86
2022/07/30 19:52:19;;;;;;;6.30;2.60;;;;;;;15.91;74.11;98857.98;104717;1290;24251;-86
2022/07/30 19:55:36;;;;;;;4.40;2.20;;;;;;;15.88;74.22;98860.92;104788;1290;24303;-88
2022/07/30 19:59:09;;;;;;;6.90;2.50;;;;;;;15.89;74.30;98862.24;104681;1291;22572;-88
2022/07/30 20:02:35;;;;;;;;;;;;;;;;;;;;;
2022/07/30 20:06:06;;;;;;;;;;;;;;;;;;;;;
2022/07/30 20:09:44;;;;;;;6.20;2.80;;;;;;;15.89;74.26;98869.14;104431;1291;22976;-85
2022/07/30 20:17:23;;;;;;;6.20;2.60;;;;;;;15.86;74.11;98870.90;104871;1290;22566;-85
2022/07/30 20:20:38;;;;;;;;;;;;;;;;;;;;;
2022/07/30 20:23:13;;;;;;;5.80;2.40;;;;;;;15.80;74.34;98874.29;105340;1286;25635;-88
2022/07/30 20:27:00;;;;;;;8.60;3.40;;;;;;;15.80;74.45;98873.10;105662;1285;22562;-85
2022/07/30 20:30:10;;;;;;;7.30;3.00;;;;;;;15.84;74.60;98874.83;105188;1285;23209;-84
2022/07/30 20:33:10;;;;;;;7.10;3.30;;;;;;;15.83;74.61;98877.80;105188;1285;22572;-83
2022/07/30 20:36:15;;;;;;;;;;;;;;;;;;;;;
2022/07/30 20:39:27;;;;;;;9.00;2.80;;;;;;;15.85;74.64;98881.73;105560;1285;24088;-86
2022/07/30 20:42:11;;;;;;;9.00;3.10;;;;;;;15.86;74.61;98881.94;104984;1287;22793;-85
2022/07/30 20:44:50;;;;;;;7.10;2.90;;;;;;;15.86;74.65;98887.39;105429;1280;22653;-83
2022/07/30 20:47:51;;;;;;;7.50;2.80;;;;;;;15.87;74.67;98886.25;105754;1280;22570;-86
2022/07/30 20:50:27;;;;;;;4.40;2.10;;;;;;;15.87;74.68;98890.64;106013;1279;25371;-82
2022/07/30 20:53:28;;;;;;;6.00;2.40;;;;;;;15.87;74.60;98895.38;105815;1274;22568;-85
2022/07/30 20:56:19;;;;;;;6.10;2.60;;;;;;;15.86;74.63;98891.89;106257;1274;22706;-86
2022/07/30 20:58:54;;;;;;;6.70;2.80;;;;;;;15.86;74.69;98893.14;106354;1274;22534;-84
2022/07/30 21:01:23;;;;;;;6.00;2.60;;;;;;;15.85;74.64;98896.77;106252;1271;22531;-86
2022/07/30 21:04:02;;;;;;;7.30;2.70;;;;;;;15.87;74.77;98893.89;106253;1274;24211;-87
2022/07/30 21:07:13;;;;;;;6.70;2.80;;;;;;;15.91;74.71;98897.83;106117;1274;25545;-85
2022/07/30 21:09:38;;;;;;;5.60;2.30;;;;;;;15.95;74.78;98899.98;106195;1274;25344;-83
2022/07/30 21:12:09;;;;;;;6.00;2.10;;;;;;;15.93;74.83;98897.10;106057;1274;22544;-87
2022/07/30 21:14:44;;;;;;;6.40;2.80;;;;;;;15.90;74.88;98901.52;106143;1274;22544;-84
2022/07/30 21:17:20;;;;;;;7.00;2.30;;;;;;;15.87;74.84;98901.66;106160;1274;23903;-83
2022/07/30 21:20:11;;;;;;;5.70;2.10;;;;;;;15.82;74.89;98904.98;106183;1273;22584;-84
2022/07/30 21:23:03;;;;;;;7.00;2.70;;;;;;;15.83;74.96;98904.59;106338;1273;25531;-84
2022/07/30 21:25:56;;;;;;;5.40;2.30;;;;;;;15.83;75.02;98905.98;106451;1274;23220;-84
2022/07/30 21:28:37;;;;;;;7.70;3.20;;;;;;;15.85;75.02;98908.86;106765;1274;22621;-86
2022/07/30 21:31:20;;;;;;;6.30;2.80;;;;;;;15.88;74.99;98908.34;106186;1274;22519;-84
2022/07/30 21:33:52;;;;;;;6.80;2.80;;;;;;;15.90;74.97;98907.11;106137;1273;25411;-83
2022/07/30 21:36:38;;;;;;;;;;;;;;;;;;;;;
2022/07/30 21:39:51;;;;;;;7.20;2.60;;;;;;;15.87;75.00;98913.85;106515;1274;22547;-85
2022/07/30 21:42:28;;;;;;;7.70;3.20;;;;;;;15.83;74.92;98916.75;106197;1274;25523;-82
2022/07/30 21:45:06;;;;;;;6.90;2.80;;;;;;;15.82;75.03;98916.77;106227;1273;22801;-83
2022/07/30 21:47:37;;;;;;;6.00;2.70;;;;;;;15.84;75.05;98919.02;106134;1274;22565;-84
2022/07/30 21:50:20;;;;;;;6.40;2.40;;;;;;;15.83;75.02;98920.69;106421;1273;22534;-82
2022/07/30 21:52:50;;;;;;;6.20;3.00;;;;;;;15.82;75.11;98920.30;105999;1274;24247;-84
2022/07/30 21:55:26;;;;;;;5.50;2.80;;;;;;;15.82;75.15;98924.38;106344;1274;22532;-82
2022/07/30 21:58:47;;;;;;;8.40;2.10;;;;;;;15.82;75.15;98924.20;106060;1274;24217;-84
2022/07/30 22:01:26;;;;;;;4.80;2.10;;;;;;;15.83;75.14;98927.16;106088;1274;22557;-82
2022/07/30 22:03:56;;;;;;;5.20;2.20;;;;;;;15.80;75.19;98930.09;106361;1274;22535;-83
2022/07/30 22:06:40;;;;;;;7.90;3.00;;;;;;;15.79;75.25;98930.10;106083;1274;22624;-82
2022/07/30 22:09:15;;;;;;;6.00;2.60;;;;;;;15.78;75.28;98930.00;106315;1274;22557;-86
2022/07/30 22:12:26;;;;;;;6.40;2.20;;;;;;;15.78;75.37;98936.80;106352;1273;26830;-83
2022/07/30 22:15:02;;;;;;;7.00;2.50;;;;;;;15.76;75.22;98938.05;106128;1273;24239;-83
2022/07/30 22:17:41;;;;;;;7.50;3.00;;;;;;;15.78;75.29;98934.84;106086;1274;23938;-84
2022/07/30 22:20:19;;;;;;;5.40;2.20;;;;;;;15.82;75.42;98937.14;106293;1272;25336;-81
2022/07/30 22:22:52;;;;;;;6.30;2.40;;;;;;;15.82;75.27;98935.98;106555;1274;25241;-83
2022/07/30 22:25:21;;;;;;;6.70;2.90;;;;;;;15.81;75.40;98938.70;106232;1271;26712;-83
2022/07/30 22:27:56;;;;;;;7.00;2.60;;;;;;;15.81;75.45;98936.89;106367;1274;22537;-85
2022/07/30 22:30:49;;;;;;;6.70;2.70;;;;;;;15.79;75.31;98939.05;106245;1274;22617;-83
2022/07/30 22:33:28;;;;;;;6.50;2.90;;;;;;;15.77;75.31;98939.82;106422;1272;26571;-85
2022/07/30 22:36:19;;;;;;;7.00;3.10;;;;;;;15.75;75.33;98939.28;106391;1274;23098;-84
2022/07/30 22:39:04;;;;;;;7.70;3.10;;;;;;;15.76;75.42;98944.48;106243;1274;25339;-84
2022/07/30 22:41:34;;;;;;;5.60;2.50;;;;;;;15.77;75.46;98945.68;106186;1274;22540;-83
2022/07/30 22:44:15;;;;;;;8.90;3.00;;;;;;;15.77;75.41;98948.40;106078;1274;22604;-82
2022/07/30 22:47:05;;;;;;;7.50;3.10;;;;;;;15.76;75.50;98948.66;106638;1273;24309;-83
2022/07/30 22:49:43;;;;;;;7.30;3.00;;;;;;;15.76;75.53;98951.69;106021;1271;22617;-84
2022/07/30 22:52:15;;;;;;;5.10;2.00;;;;;;;15.75;75.53;98953.73;106222;1274;22980;-84
2022/07/30 22:54:46;;;;;;;5.60;2.30;;;;;;;15.74;75.48;98957.99;106415;1274;24278;-82
2022/07/30 22:57:18;;;;;;;6.30;2.80;;;;;;;15.71;75.52;98954.73;106142;1274;25517;-82
2022/07/30 22:59:55;;;;;;;6.40;3.20;;;;;;;15.75;75.65;98957.16;106223;1274;22575;-88
2022/07/30 23:02:27;;;;;;;6.80;2.90;;;;;;;15.78;75.74;98958.87;106221;1274;22537;-83
2022/07/30 23:05:08;;;;;;;8.70;3.00;;;;;;;15.81;75.65;98961.09;106134;1274;22734;-83
2022/07/30 23:07:44;;;;;;;7.80;3.50;;;;;;;15.77;75.56;98961.11;106388;1271;23908;-83
2022/07/30 23:10:25;;;;;;;8.40;3.20;;;;;;;15.76;75.57;98959.39;106150;1274;24215;-83
2022/07/30 23:13:01;;;;;;;9.20;3.60;;;;;;;15.75;75.60;98956.52;106570;1272;24212;-83
2022/07/30 23:15:41;;;;;;;6.60;3.10;;;;;;;15.71;75.62;98958.82;106612;1271;22608;-82
2022/07/30 23:18:22;;;;;;;7.50;2.80;;;;;;;15.71;75.66;98954.53;106139;1272;24205;-86
2022/07/30 23:21:00;;;;;;;8.50;3.20;;;;;;;15.68;75.73;98963.42;106136;1272;24299;-84
2022/07/30 23:23:43;;;;;;;6.50;3.00;;;;;;;15.66;75.77;98958.63;106193;1272;22552;-83
2022/07/30 23:26:16;;;;;;;7.20;2.80;;;;;;;15.65;75.79;98958.31;106202;1274;22531;-84
2022/07/30 23:28:58;;;;;;;;;;;;;;;;;;;;;
2022/07/30 23:32:07;;;;;;;5.60;2.70;;;;;;;15.65;75.75;98954.71;106407;1271;22550;-83
2022/07/30 23:34:53;;;;;;;8.50;3.10;;;;;;;15.67;75.87;98953.31;106386;1271;22534;-83
2022/07/30 23:37:51;;;;;;;8.00;3.00;;;;;;;15.66;75.86;98954.40;106334;1274;22535;-86
2022/07/30 23:40:27;;;;;;;7.50;2.60;;;;;;;15.63;75.75;98954.50;106237;1274;22621;-84
2022/07/30 23:43:04;;;;;;;7.40;2.70;;;;;;;15.60;75.82;98958.06;106581;1272;25239;-82
2022/07/30 23:45:51;;;;;;;;;;;;;;;;;;;;;
2022/07/30 23:48:46;;;;;;;7.40;3.00;;;;;;;15.51;75.95;98963.95;106434;1271;25247;-83
2022/07/30 23:51:29;;;;;;;8.00;3.10;;;;;;;15.51;75.96;98964.69;106219;1274;25242;-83
2022/07/30 23:54:11;;;;;;;6.40;2.70;;;;;;;15.53;75.99;98965.73;106068;1273;22547;-84
2022/07/30 23:56:53;;;;;;;9.90;3.10;;;;;;;15.57;76.02;98966.00;106028;1273;22628;-86
2022/07/30 23:59:36;;;;;;;5.70;2.70;;;;;;;15.59;75.91;98965.48;106215;1274;22768;-84
